createdAt,value
2022-09-29T00:00:33.093Z,30.88
2022-09-29T00:03:00.340Z,30.91
2022-09-29T00:05:27.981Z,30.86
2022-09-29T00:07:55.164Z,30.95
2022-09-29T00:10:22.540Z,30.79
2022-09-29T00:12:49.751Z,30.87
2022-09-29T00:15:17.421Z,31.07
2022-09-29T00:18:09.262Z,30.85
2022-09-29T00:20:32.216Z,31.07
2022-09-29T00:22:59.807Z,31.15
2022-09-29T00:25:27.114Z,30.92
2022-09-29T00:27:54.337Z,30.78
2022-09-29T00:30:21.747Z,30.94
2022-09-29T00:32:48.916Z,30.72
2022-09-29T00:35:18.015Z,30.80
2022-09-29T00:37:45.448Z,30.92
2022-09-29T00:40:12.796Z,30.67
2022-09-29T00:42:40.795Z,30.59
2022-09-29T00:45:16.748Z,30.83
2022-09-29T00:47:46.385Z,30.89
2022-09-29T00:50:16.592Z,30.69
2022-09-29T00:52:46.653Z,30.93
2022-09-29T00:55:16.263Z,30.93
2022-09-29T00:57:49.532Z,30.70
2022-09-29T01:00:17.490Z,31.02
2022-09-29T01:02:48.804Z,30.96
2022-09-29T01:05:21.151Z,30.88
2022-09-29T01:07:48.736Z,30.78
2022-09-29T01:10:17.384Z,30.68
2022-09-29T01:12:46.332Z,30.94
2022-09-29T01:15:15.010Z,31.11
2022-09-29T01:17:42.346Z,30.89
2022-09-29T01:20:20.806Z,30.86
2022-09-29T01:22:48.031Z,30.97
2022-09-29T01:25:31.459Z,31.01
2022-09-29T01:28:07.649Z,30.88
2022-09-29T01:30:43.739Z,30.93
2022-09-29T01:33:21.579Z,30.76
2022-09-29T01:35:53.402Z,30.96
2022-09-29T01:38:28.623Z,30.99
2022-09-29T01:40:58.747Z,30.94
2022-09-29T01:43:31.263Z,31.03
2022-09-29T01:46:12.372Z,30.98
2022-09-29T01:48:43.371Z,30.67
2022-09-29T01:51:15.541Z,30.97
2022-09-29T01:53:45.902Z,31.06
2022-09-29T01:56:16.921Z,30.94
2022-09-29T01:58:44.149Z,30.80
2022-09-29T02:01:13.397Z,30.77
2022-09-29T02:03:59.218Z,30.89
2022-09-29T02:06:32.551Z,30.89
2022-09-29T02:09:02.612Z,30.93
2022-09-29T02:11:32.394Z,30.99
2022-09-29T02:14:05.974Z,30.95
2022-09-29T02:16:37.340Z,30.80
2022-09-29T02:19:10.706Z,30.93
2022-09-29T02:21:37.965Z,30.97
2022-09-29T02:24:05.599Z,30.95
2022-09-29T02:26:36.772Z,30.89
2022-09-29T02:29:05.093Z,30.86
2022-09-29T02:31:33.221Z,30.96
2022-09-29T02:34:02.203Z,30.92
2022-09-29T02:36:40.711Z,30.86
2022-09-29T02:39:31.112Z,30.85
2022-09-29T02:42:13.597Z,30.73
2022-09-29T02:44:46.975Z,30.60
2022-09-29T02:47:19.216Z,30.60
2022-09-29T02:49:55.739Z,30.77
2022-09-29T02:52:31.963Z,30.72
2022-09-29T02:55:14.588Z,30.62
2022-09-29T02:57:50.963Z,30.72
2022-09-29T03:00:19.603Z,30.60
2022-09-29T03:02:47.224Z,30.95
2022-09-29T03:05:19.180Z,30.80
2022-09-29T03:07:46.603Z,30.78
2022-09-29T03:10:14.880Z,31.00
2022-09-29T03:12:42.165Z,31.10
2022-09-29T03:15:11.425Z,30.81
2022-09-29T03:17:39.296Z,30.94
2022-09-29T03:20:07.233Z,31.35
2022-09-29T03:22:34.561Z,31.21
2022-09-29T03:25:01.888Z,30.95
2022-09-29T03:27:29.314Z,31.00
2022-09-29T03:29:56.742Z,31.09
2022-09-29T03:32:23.945Z,31.15
2022-09-29T03:34:51.217Z,31.17
2022-09-29T03:37:18.422Z,31.06
2022-09-29T03:39:45.571Z,31.06
2022-09-29T03:42:12.966Z,30.82
2022-09-29T03:44:40.194Z,31.02
2022-09-29T03:47:07.381Z,30.96
2022-09-29T03:49:35.750Z,31.06
2022-09-29T03:52:03.023Z,31.16
2022-09-29T03:54:30.240Z,31.04
2022-09-29T03:56:57.555Z,31.03
2022-09-29T03:59:24.802Z,31.04
2022-09-29T04:01:52.015Z,31.07
2022-09-29T04:04:19.322Z,30.89
2022-09-29T04:06:46.575Z,31.26
2022-09-29T04:09:15.947Z,31.05
2022-09-29T04:11:43.211Z,30.98
2022-09-29T04:14:10.398Z,31.06
2022-09-29T04:16:37.812Z,31.14
2022-09-29T04:19:05.082Z,30.76
2022-09-29T04:21:32.344Z,31.20
2022-09-29T04:23:59.535Z,31.10
2022-09-29T04:26:27.012Z,31.22
2022-09-29T04:28:55.655Z,31.14
2022-09-29T04:31:22.937Z,31.23
2022-09-29T04:33:50.426Z,31.03
2022-09-29T04:36:17.875Z,31.01
2022-09-29T04:38:45.050Z,31.03
2022-09-29T04:41:12.317Z,31.10
2022-09-29T04:43:39.478Z,30.95
2022-09-29T04:46:07.621Z,30.94
2022-09-29T04:48:36.318Z,31.01
2022-09-29T04:51:05.144Z,30.94
2022-09-29T04:53:32.328Z,30.98
2022-09-29T04:55:59.936Z,30.84
2022-09-29T04:58:27.136Z,30.92
2022-09-29T05:00:54.554Z,30.81
2022-09-29T05:03:21.846Z,30.88
2022-09-29T05:05:49.062Z,30.92
2022-09-29T05:08:16.259Z,31.04
2022-09-29T05:10:47.997Z,30.92
2022-09-29T05:13:15.261Z,31.00
2022-09-29T05:15:42.542Z,30.92
2022-09-29T05:18:09.900Z,30.96
2022-09-29T05:20:44.720Z,30.89
2022-09-29T05:23:18.004Z,30.82
2022-09-29T05:25:45.674Z,30.89
2022-09-29T05:28:15.205Z,31.03
2022-09-29T05:30:43.636Z,31.04
2022-09-29T05:33:10.849Z,31.05
2022-09-29T05:35:38.125Z,30.94
2022-09-29T05:38:05.440Z,30.98
2022-09-29T05:40:32.846Z,31.16
2022-09-29T05:43:00.764Z,31.20
2022-09-29T05:45:28.461Z,30.99
2022-09-29T05:47:55.665Z,31.14
2022-09-29T05:50:23.633Z,30.99
2022-09-29T05:52:53.155Z,31.05
2022-09-29T05:55:20.536Z,31.02
2022-09-29T05:57:49.561Z,30.86
2022-09-29T06:00:17.100Z,31.36
2022-09-29T06:02:44.305Z,31.11
2022-09-29T06:05:11.576Z,30.95
2022-09-29T06:07:38.793Z,30.83
2022-09-29T06:10:06.481Z,31.01
2022-09-29T06:12:34.864Z,30.93
2022-09-29T06:15:03.018Z,30.99
2022-09-29T06:17:30.308Z,31.07
2022-09-29T06:19:57.649Z,31.15
2022-09-29T06:22:25.032Z,31.28
2022-09-29T06:24:52.251Z,31.31
2022-09-29T06:27:19.420Z,30.92
2022-09-29T06:29:46.796Z,31.02
2022-09-29T06:32:14.303Z,31.05
2022-09-29T06:35:01.660Z,31.06
2022-09-29T06:37:35.279Z,31.13
2022-09-29T06:40:08.807Z,30.90
2022-09-29T06:42:39.050Z,30.92
2022-09-29T06:45:07.023Z,30.86
2022-09-29T06:47:34.431Z,30.94
2022-09-29T06:50:05.459Z,30.74
2022-09-29T06:52:33.530Z,30.80
2022-09-29T06:55:00.803Z,31.05
2022-09-29T06:57:28.282Z,30.75
2022-09-29T06:59:55.540Z,30.80
2022-09-29T07:02:22.844Z,30.78
2022-09-29T07:04:50.050Z,31.07
2022-09-29T07:07:18.191Z,30.88
2022-09-29T07:09:45.364Z,30.71
2022-09-29T07:12:12.631Z,30.97
2022-09-29T07:14:39.840Z,31.03
2022-09-29T07:17:07.223Z,30.97
2022-09-29T07:19:34.972Z,30.98
2022-09-29T07:22:02.422Z,30.86
2022-09-29T07:24:29.633Z,31.03
2022-09-29T07:26:57.032Z,30.93
2022-09-29T07:29:24.386Z,31.06
2022-09-29T07:31:53.181Z,30.89
2022-09-29T07:34:21.075Z,31.19
2022-09-29T07:36:49.015Z,30.91
2022-09-29T07:39:16.770Z,30.92
2022-09-29T07:41:44.061Z,30.96
2022-09-29T07:44:11.711Z,30.90
2022-09-29T07:46:40.631Z,30.99
2022-09-29T07:49:07.873Z,31.00
2022-09-29T07:51:35.514Z,31.01
2022-09-29T07:54:03.500Z,31.07
2022-09-29T07:56:32.997Z,31.04
2022-09-29T07:59:02.460Z,31.08
2022-09-29T08:01:30.225Z,30.84
2022-09-29T08:03:57.879Z,30.61
2022-09-29T08:06:26.237Z,30.82
2022-09-29T08:09:03.361Z,30.88
2022-09-29T08:11:32.866Z,30.75
2022-09-29T08:14:00.929Z,30.90
2022-09-29T08:16:28.425Z,30.94
2022-09-29T08:18:55.947Z,30.90
2022-09-29T08:21:23.166Z,30.84
2022-09-29T08:23:50.470Z,30.73
2022-09-29T08:26:20.149Z,30.73
2022-09-29T08:29:00.189Z,30.85
2022-09-29T08:31:32.017Z,30.95
2022-09-29T08:33:59.485Z,30.92
2022-09-29T08:36:27.137Z,30.88
2022-09-29T08:38:56.040Z,30.90
2022-09-29T08:41:24.114Z,31.03
2022-09-29T08:43:54.672Z,31.15
2022-09-29T08:46:35.892Z,30.93
2022-09-29T08:49:06.662Z,30.85
2022-09-29T08:51:42.881Z,30.96
2022-09-29T08:54:34.813Z,31.11
2022-09-29T08:57:06.430Z,31.08
2022-09-29T08:59:33.766Z,30.93
2022-09-29T09:02:04.164Z,31.10
2022-09-29T09:04:40.726Z,31.05
2022-09-29T09:07:24.720Z,31.03
2022-09-29T09:09:56.126Z,31.32
2022-09-29T09:12:38.521Z,30.85
2022-09-29T09:15:17.753Z,31.01
2022-09-29T09:17:52.435Z,31.25
2022-09-29T09:20:36.831Z,30.96
2022-09-29T09:23:13.779Z,31.25
2022-09-29T09:25:46.257Z,31.08
2022-09-29T09:28:27.054Z,31.17
2022-09-29T09:30:57.175Z,31.16
2022-09-29T09:33:35.968Z,31.11
2022-09-29T09:36:06.059Z,31.15
2022-09-29T09:38:41.987Z,31.19
2022-09-29T09:41:09.861Z,31.44
2022-09-29T09:43:40.963Z,31.29
2022-09-29T09:46:35.276Z,30.94
2022-09-29T09:49:14.238Z,31.21
2022-09-29T09:51:55.214Z,31.08
2022-09-29T09:54:25.840Z,31.22
2022-09-29T09:56:58.491Z,31.17
2022-09-29T09:59:25.787Z,31.23
2022-09-29T10:01:53.003Z,31.16
2022-09-29T10:04:21.191Z,31.24
2022-09-29T10:06:48.382Z,31.19
2022-09-29T10:09:16.190Z,31.17
2022-09-29T10:11:46.751Z,31.01
2022-09-29T10:14:15.745Z,31.13
2022-09-29T10:16:52.115Z,30.93
2022-09-29T10:19:23.544Z,30.98
2022-09-29T10:21:51.027Z,31.03
2022-09-29T10:24:22.849Z,30.89
2022-09-29T10:26:51.404Z,30.83
2022-09-29T10:29:18.616Z,30.82
2022-09-29T10:31:58.399Z,30.93
2022-09-29T10:34:25.851Z,31.07
2022-09-29T10:37:04.113Z,30.97
2022-09-29T10:39:32.119Z,30.93
2022-09-29T10:41:59.857Z,31.10
2022-09-29T10:44:31.324Z,30.95
2022-09-29T10:46:59.247Z,31.08
2022-09-29T10:49:29.654Z,31.00
2022-09-29T10:52:00.839Z,31.41
2022-09-29T10:54:30.357Z,31.61
2022-09-29T10:56:58.763Z,31.94
2022-09-29T10:59:27.221Z,31.94
2022-09-29T11:01:56.978Z,31.83
2022-09-29T11:04:24.217Z,31.89
2022-09-29T11:06:51.539Z,31.71
2022-09-29T11:09:19.661Z,31.79
2022-09-29T11:11:47.065Z,31.94
2022-09-29T11:14:25.547Z,32.06
2022-09-29T11:16:54.878Z,31.95
2022-09-29T11:19:22.724Z,31.92
2022-09-29T11:21:57.965Z,31.98
2022-09-29T11:24:25.323Z,32.15
2022-09-29T11:27:10.644Z,32.68
2022-09-29T11:29:48.068Z,32.56
2022-09-29T11:32:18.273Z,32.03
2022-09-29T11:34:52.836Z,32.44
2022-09-29T11:37:59.000Z,32.34
2022-09-29T11:40:35.821Z,32.33
2022-09-29T11:43:15.006Z,32.32
2022-09-29T11:45:46.566Z,32.29
2022-09-29T11:48:30.606Z,32.12
2022-09-29T11:51:05.546Z,32.04
2022-09-29T11:53:53.280Z,32.03
2022-09-29T11:56:23.906Z,32.06
2022-09-29T11:59:29.736Z,32.28
2022-09-29T12:02:09.170Z,31.99
2022-09-29T12:04:57.701Z,32.14
2022-09-29T12:07:25.652Z,32.20
2022-09-29T12:09:53.230Z,32.31
2022-09-29T12:12:26.392Z,31.96
2022-09-29T12:15:19.110Z,32.40
2022-09-29T12:17:48.774Z,31.97
2022-09-29T12:20:16.083Z,31.86
2022-09-29T12:22:45.636Z,32.14
2022-09-29T12:25:16.016Z,32.15
2022-09-29T12:27:44.527Z,31.93
2022-09-29T12:30:35.971Z,32.02
2022-09-29T12:33:15.469Z,32.25
2022-09-29T12:35:57.638Z,32.13
2022-09-29T12:38:25.263Z,32.12
2022-09-29T12:41:01.494Z,32.14
2022-09-29T12:43:35.112Z,31.67
2022-09-29T12:46:08.840Z,31.98
2022-09-29T12:48:36.154Z,31.65
2022-09-29T12:51:17.983Z,32.04
2022-09-29T12:53:48.871Z,31.65
2022-09-29T12:56:25.448Z,31.84
2022-09-29T12:58:55.837Z,31.90
2022-09-29T13:01:27.982Z,31.74
2022-09-29T13:04:07.009Z,31.98
2022-09-29T13:06:49.043Z,31.99
2022-09-29T13:09:31.488Z,31.72
2022-09-29T13:12:01.810Z,31.85
2022-09-29T13:14:47.839Z,31.81
2022-09-29T13:17:24.798Z,31.57
2022-09-29T13:20:01.251Z,31.39
2022-09-29T13:22:47.519Z,31.89
2022-09-29T13:25:39.868Z,31.69
2022-09-29T13:28:30.665Z,31.66
2022-09-29T13:31:09.356Z,31.69
2022-09-29T13:33:37.626Z,31.63
2022-09-29T13:36:05.110Z,31.48
2022-09-29T13:38:34.249Z,31.29
2022-09-29T13:41:34.542Z,31.42
2022-09-29T13:44:03.335Z,31.45
2022-09-29T13:46:30.483Z,31.47
2022-09-29T13:49:12.992Z,31.27
2022-09-29T13:51:40.266Z,31.38
2022-09-29T13:54:22.766Z,31.73
2022-09-29T13:57:01.186Z,31.39
2022-09-29T13:59:31.557Z,31.60
2022-09-29T14:01:59.377Z,31.48
2022-09-29T14:04:41.933Z,31.37
2022-09-29T14:07:10.966Z,31.25
2022-09-29T14:09:41.719Z,31.09
2022-09-29T14:12:16.880Z,31.21
2022-09-29T14:14:47.411Z,31.22
2022-09-29T14:17:19.635Z,31.11
2022-09-29T14:20:03.177Z,30.83
2022-09-29T14:22:30.383Z,30.92
2022-09-29T14:25:13.779Z,31.07
2022-09-29T14:27:49.235Z,31.13
2022-09-29T14:30:19.023Z,31.11
2022-09-29T14:32:55.010Z,30.91
2022-09-29T14:35:30.881Z,31.00
2022-09-29T14:38:00.854Z,30.84
2022-09-29T14:40:28.381Z,31.08
2022-09-29T14:43:24.674Z,31.16
2022-09-29T14:46:40.171Z,31.13
2022-09-29T14:49:29.136Z,30.72
2022-09-29T14:52:14.991Z,30.97
2022-09-29T14:55:05.677Z,31.05
2022-09-29T14:57:34.247Z,30.72
2022-09-29T15:00:04.849Z,31.03
2022-09-29T15:02:34.293Z,31.14
2022-09-29T15:05:11.605Z,31.06
2022-09-29T15:07:42.419Z,31.13
2022-09-29T15:10:20.627Z,31.09
2022-09-29T15:12:50.650Z,31.28
2022-09-29T15:15:33.684Z,31.40
2022-09-29T15:18:16.447Z,31.46
2022-09-29T15:20:52.372Z,31.48
2022-09-29T15:23:19.579Z,31.09
2022-09-29T15:25:47.283Z,31.45
2022-09-29T15:28:17.094Z,31.26
2022-09-29T15:30:45.063Z,31.27
2022-09-29T15:33:23.501Z,31.10
2022-09-29T15:36:01.906Z,31.00
2022-09-29T15:38:33.223Z,31.08
2022-09-29T15:41:03.631Z,31.09
2022-09-29T15:43:41.098Z,31.05
2022-09-29T15:46:47.556Z,31.21
2022-09-29T15:49:17.500Z,31.25
2022-09-29T15:52:05.035Z,31.19
2022-09-29T15:54:39.751Z,31.24
2022-09-29T15:57:25.810Z,31.35
2022-09-29T15:59:54.375Z,31.33
2022-09-29T16:02:40.887Z,31.67
2022-09-29T16:05:14.414Z,31.45
2022-09-29T16:07:48.967Z,31.42
2022-09-29T16:10:36.588Z,31.34
2022-09-29T16:13:08.910Z,31.29
2022-09-29T16:15:38.522Z,31.63
2022-09-29T16:18:13.407Z,31.35
2022-09-29T16:20:42.805Z,31.28
2022-09-29T16:23:18.679Z,31.40
2022-09-29T16:25:46.121Z,31.41
2022-09-29T16:28:24.050Z,31.42
2022-09-29T16:31:22.880Z,31.60
2022-09-29T16:33:57.875Z,31.62
2022-09-29T16:36:32.343Z,31.45
2022-09-29T16:39:00.047Z,31.52
2022-09-29T16:41:34.479Z,31.50
2022-09-29T16:44:18.489Z,31.60
2022-09-29T16:46:48.842Z,31.52
2022-09-29T16:49:18.013Z,31.47
2022-09-29T16:51:46.187Z,31.47
2022-09-29T16:54:32.948Z,31.36
2022-09-29T16:57:17.143Z,31.74
2022-09-29T16:59:45.557Z,31.67
2022-09-29T17:02:13.024Z,31.39
2022-09-29T17:04:40.242Z,31.47
2022-09-29T17:07:10.168Z,31.32
2022-09-29T17:09:37.655Z,31.40
2022-09-29T17:12:04.899Z,30.94
2022-09-29T17:14:32.363Z,31.30
2022-09-29T17:16:59.652Z,31.66
2022-09-29T17:19:26.861Z,31.38
2022-09-29T17:21:55.144Z,31.50
2022-09-29T17:24:23.350Z,31.53
2022-09-29T17:27:09.112Z,31.60
2022-09-29T17:29:36.521Z,31.38
2022-09-29T17:32:06.776Z,31.49
2022-09-29T17:34:34.078Z,31.48
2022-09-29T17:37:01.990Z,31.41
2022-09-29T17:39:29.490Z,31.56
2022-09-29T17:41:57.727Z,31.17
2022-09-29T17:44:27.229Z,31.29
2022-09-29T17:47:10.829Z,31.08
2022-09-29T17:49:45.399Z,31.26
2022-09-29T17:52:15.582Z,31.35
2022-09-29T17:54:42.987Z,30.99
2022-09-29T17:57:19.275Z,31.13
2022-09-29T17:59:47.292Z,31.06
2022-09-29T18:02:14.583Z,30.85
2022-09-29T18:04:43.664Z,31.15
2022-09-29T18:07:12.066Z,31.31
2022-09-29T18:09:40.700Z,31.09
2022-09-29T18:12:08.224Z,31.23
2022-09-29T18:14:36.613Z,31.02
2022-09-29T18:17:05.844Z,31.09
2022-09-29T18:19:40.181Z,31.50
2022-09-29T18:22:08.050Z,31.09
2022-09-29T18:24:35.306Z,31.16
2022-09-29T18:27:02.573Z,31.09
2022-09-29T18:29:31.732Z,31.06
2022-09-29T18:31:59.454Z,31.13
2022-09-29T18:34:27.017Z,31.19
2022-09-29T18:36:54.256Z,31.14
2022-09-29T18:39:21.919Z,31.16
2022-09-29T18:41:49.452Z,31.02
2022-09-29T18:44:30.069Z,31.22
2022-09-29T18:46:57.606Z,31.30
2022-09-29T18:49:24.935Z,31.11
2022-09-29T18:51:52.878Z,31.26
2022-09-29T18:54:20.127Z,31.15
2022-09-29T18:56:50.380Z,31.20
2022-09-29T18:59:19.763Z,31.28
2022-09-29T19:01:47.052Z,31.13
2022-09-29T19:04:14.911Z,31.05
2022-09-29T19:06:42.136Z,31.15
2022-09-29T19:09:09.459Z,31.37
2022-09-29T19:11:36.737Z,31.04
2022-09-29T19:14:04.365Z,31.20
2022-09-29T19:16:34.161Z,31.17
2022-09-29T19:19:04.489Z,31.16
2022-09-29T19:21:32.773Z,31.20
2022-09-29T19:24:00.043Z,31.26
2022-09-29T19:26:27.482Z,31.20
2022-09-29T19:28:54.666Z,31.19
2022-09-29T19:31:23.433Z,31.22
2022-09-29T19:33:51.058Z,31.17
2022-09-29T19:36:20.027Z,31.41
2022-09-29T19:38:47.345Z,31.28
2022-09-29T19:41:19.145Z,31.20
2022-09-29T19:43:46.433Z,31.19
2022-09-29T19:46:14.239Z,31.15
2022-09-29T19:48:43.470Z,31.50
2022-09-29T19:51:32.020Z,31.23
2022-09-29T19:54:14.899Z,31.15
2022-09-29T19:56:44.391Z,31.23
2022-09-29T19:59:14.077Z,31.36
2022-09-29T20:01:42.707Z,31.32
2022-09-29T20:04:11.759Z,31.37
2022-09-29T20:06:39.905Z,31.36
2022-09-29T20:09:08.075Z,31.28
2022-09-29T20:11:37.901Z,31.33
2022-09-29T20:14:06.290Z,31.23
2022-09-29T20:16:34.755Z,31.26
2022-09-29T20:19:02.367Z,31.19
2022-09-29T20:21:30.195Z,31.11
2022-09-29T20:24:01.301Z,31.13
2022-09-29T20:26:28.716Z,31.45
2022-09-29T20:28:55.995Z,31.39
2022-09-29T20:31:23.575Z,31.35
2022-09-29T20:33:51.502Z,31.08
2022-09-29T20:36:19.050Z,31.13
2022-09-29T20:38:50.903Z,31.05
2022-09-29T20:41:18.195Z,31.00
2022-09-29T20:43:51.324Z,31.21
2022-09-29T20:46:18.700Z,31.23
2022-09-29T20:48:46.229Z,31.19
2022-09-29T20:51:17.113Z,31.05
2022-09-29T20:53:46.360Z,31.02
2022-09-29T20:56:18.351Z,31.19
2022-09-29T20:58:47.376Z,30.94
2022-09-29T21:01:20.968Z,31.06
2022-09-29T21:03:52.680Z,30.97
2022-09-29T21:06:24.073Z,31.10
2022-09-29T21:08:51.349Z,30.96
2022-09-29T21:11:19.071Z,30.97
2022-09-29T21:13:46.893Z,30.89
2022-09-29T21:16:14.176Z,30.98
2022-09-29T21:18:41.743Z,30.84
2022-09-29T21:21:09.014Z,30.83
2022-09-29T21:23:37.311Z,30.86
2022-09-29T21:26:07.788Z,31.03
2022-09-29T21:28:38.799Z,30.99
2022-09-29T21:31:07.361Z,30.84
2022-09-29T21:33:37.036Z,30.88
2022-09-29T21:36:05.588Z,30.86
2022-09-29T21:38:39.604Z,30.91
2022-09-29T21:41:08.598Z,30.98
2022-09-29T21:43:36.279Z,30.82
2022-09-29T21:46:04.794Z,30.85
2022-09-29T21:48:32.824Z,30.93
2022-09-29T21:51:06.757Z,30.77
2022-09-29T21:53:34.824Z,30.81
2022-09-29T21:56:03.545Z,30.86
2022-09-29T21:58:31.048Z,30.62
2022-09-29T22:00:58.448Z,30.81
2022-09-29T22:03:28.767Z,30.74
2022-09-29T22:05:56.099Z,30.66
2022-09-29T22:08:23.485Z,30.62
2022-09-29T22:10:51.351Z,30.48
2022-09-29T22:13:19.114Z,30.63
2022-09-29T22:15:46.992Z,30.47
2022-09-29T22:18:14.170Z,30.55
2022-09-29T22:20:41.856Z,30.60
2022-09-29T22:23:09.022Z,30.61
2022-09-29T22:25:41.739Z,30.54
2022-09-29T22:28:08.938Z,30.63
2022-09-29T22:30:36.148Z,30.63
2022-09-29T22:33:03.552Z,30.52
2022-09-29T22:35:37.222Z,30.55
2022-09-29T22:38:05.234Z,30.51
2022-09-29T22:40:33.104Z,30.53
2022-09-29T22:43:00.326Z,30.50
2022-09-29T22:45:27.903Z,30.60
2022-09-29T22:47:55.969Z,30.54
2022-09-29T22:50:24.743Z,30.46
2022-09-29T22:52:56.609Z,30.39
2022-09-29T22:55:27.933Z,30.44
2022-09-29T22:57:56.182Z,30.44
2022-09-29T23:00:23.994Z,30.24
2022-09-29T23:02:51.618Z,30.31
2022-09-29T23:05:18.895Z,30.27
2022-09-29T23:07:46.175Z,30.45
2022-09-29T23:10:13.334Z,30.37
2022-09-29T23:12:44.991Z,30.36
2022-09-29T23:15:12.644Z,30.33
2022-09-29T23:17:39.951Z,30.38
2022-09-29T23:20:07.789Z,30.62
2022-09-29T23:22:35.157Z,30.30
2022-09-29T23:25:03.073Z,30.30
2022-09-29T23:27:30.782Z,30.29
2022-09-29T23:29:58.093Z,30.29
2022-09-29T23:32:25.388Z,30.37
2022-09-29T23:34:52.809Z,30.34
2022-09-29T23:37:20.011Z,30.32
2022-09-29T23:39:47.332Z,30.39
2022-09-29T23:42:15.220Z,30.40
2022-09-29T23:44:42.428Z,30.31
2022-09-29T23:47:09.615Z,30.22
2022-09-29T23:49:36.976Z,30.36
2022-09-29T23:52:04.694Z,30.32
2022-09-29T23:54:31.940Z,30.27
2022-09-29T23:56:59.227Z,30.28
2022-09-29T23:59:26.740Z,30.40
